KLM25M EKYT-EHAM
Flight info
| Callsign | KLM25M |
|---|---|
| Flight time | 1h 8m |
| Altitude | 36000 |
| Route | LASRO N607 BAVTA DCT IPSUB P174 KUBAT T200 BLUFA |
| Aircraft | E190/M-SDE3GILORVW/S |
Departure
| Time | 2026-05-08 00:26 |
|---|---|
| Airport | Aalborg Airport (EKYT) |
Arrival
| Time | 2026-05-08 01:35 |
|---|---|
| Airport | Amsterdam Airport Schiphol (EHAM) |
| Time | Latitude | Longitude | Altitude | Speed | Heading |
|---|---|---|---|---|---|
| 2026-05-08 00:05 | 57.08701 | 9.86977 | 13 ft | 0 kts | 56° |
| 2026-05-08 00:17 | 57.08694 | 9.86960 | 13 ft | 2 kts | 55° |
| 2026-05-08 00:17 | 57.08686 | 9.86937 | 13 ft | 2 kts | 56° |
| 2026-05-08 00:17 | 57.08677 | 9.86915 | 13 ft | 2 kts | 56° |
| 2026-05-08 00:17 | 57.08672 | 9.86899 | 13 ft | 0 kts | 56° |
| 2026-05-08 00:18 | 57.08661 | 9.86884 | 13 ft | 2 kts | 8° |
| 2026-05-08 00:18 | 57.08648 | 9.86888 | 13 ft | 0 kts | 324° |
| 2026-05-08 00:18 | 57.08644 | 9.86896 | 13 ft | 1 kts | 315° |
| 2026-05-08 00:18 | 57.08642 | 9.86899 | 13 ft | 0 kts | 317° |
| 2026-05-08 00:20 | 57.08643 | 9.86898 | 13 ft | 0 kts | 318° |
| 2026-05-08 00:21 | 57.08650 | 9.86886 | 13 ft | 3 kts | 318° |
| 2026-05-08 00:21 | 57.08686 | 9.86826 | 13 ft | 9 kts | 318° |
| 2026-05-08 00:21 | 57.08741 | 9.86739 | 13 ft | 10 kts | 321° |
| 2026-05-08 00:21 | 57.08803 | 9.86654 | 13 ft | 11 kts | 329° |
| 2026-05-08 00:22 | 57.08865 | 9.86568 | 13 ft | 11 kts | 324° |
| 2026-05-08 00:22 | 57.08931 | 9.86468 | 13 ft | 12 kts | 318° |
| 2026-05-08 00:22 | 57.09000 | 9.86358 | 13 ft | 13 kts | 322° |
| 2026-05-08 00:22 | 57.09078 | 9.86256 | 13 ft | 14 kts | 324° |
| 2026-05-08 00:23 | 57.09158 | 9.86149 | 13 ft | 14 kts | 322° |
| 2026-05-08 00:23 | 57.09237 | 9.86033 | 13 ft | 14 kts | 322° |
| 2026-05-08 00:23 | 57.09317 | 9.85910 | 13 ft | 15 kts | 313° |
| 2026-05-08 00:23 | 57.09331 | 9.85706 | 13 ft | 20 kts | 264° |
| 2026-05-08 00:24 | 57.09312 | 9.85418 | 13 ft | 25 kts | 263° |
| 2026-05-08 00:24 | 57.09286 | 9.85018 | 13 ft | 33 kts | 263° |
| 2026-05-08 00:24 | 57.09259 | 9.84595 | 13 ft | 33 kts | 264° |
| 2026-05-08 00:24 | 57.09232 | 9.84180 | 13 ft | 32 kts | 261° |
| 2026-05-08 00:25 | 57.09207 | 9.83789 | 13 ft | 26 kts | 263° |
| 2026-05-08 00:25 | 57.09203 | 9.83596 | 13 ft | 8 kts | 287° |
| 2026-05-08 00:25 | 57.09243 | 9.83504 | 13 ft | 10 kts | 312° |
| 2026-05-08 00:25 | 57.09295 | 9.83395 | 13 ft | 12 kts | 331° |
| 2026-05-08 00:26 | 57.09376 | 9.83431 | 13 ft | 15 kts | 68° |
| 2026-05-08 00:26 | 57.09413 | 9.83932 | 13 ft | 83 kts | 82° |
| 2026-05-08 00:26 | 57.09517 | 9.85545 | 36 ft | 162 kts | 83° |
| 2026-05-08 00:26 | 57.09661 | 9.87645 | 849 ft | 174 kts | 87° |
| 2026-05-08 00:27 | 57.09754 | 9.89825 | 1769 ft | 181 kts | 88° |
| 2026-05-08 00:27 | 57.09862 | 9.92217 | 2444 ft | 202 kts | 87° |
| 2026-05-08 00:27 | 57.09755 | 9.94801 | 3251 ft | 213 kts | 116° |
| 2026-05-08 00:27 | 57.08690 | 9.96822 | 3759 ft | 241 kts | 152° |
| 2026-05-08 00:28 | 57.07003 | 9.97493 | 4487 ft | 254 kts | 185° |
| 2026-05-08 00:28 | 57.05428 | 9.96289 | 5227 ft | 260 kts | 219° |
| 2026-05-08 00:28 | 57.04092 | 9.93955 | 6045 ft | 276 kts | 216° |
| 2026-05-08 00:28 | 57.02539 | 9.91904 | 7138 ft | 280 kts | 218° |
| 2026-05-08 00:29 | 57.01025 | 9.89768 | 8412 ft | 277 kts | 214° |
| 2026-05-08 00:29 | 56.99484 | 9.87777 | 9559 ft | 275 kts | 213° |
| 2026-05-08 00:29 | 56.97905 | 9.85827 | 10564 ft | 278 kts | 213° |
| 2026-05-08 00:29 | 56.96288 | 9.83874 | 11381 ft | 287 kts | 213° |
| 2026-05-08 00:30 | 56.94573 | 9.81828 | 12038 ft | 292 kts | 213° |
| 2026-05-08 00:30 | 56.92821 | 9.79749 | 12194 ft | 315 kts | 212° |
| 2026-05-08 00:30 | 56.90922 | 9.77503 | 12852 ft | 328 kts | 212° |
| 2026-05-08 00:30 | 56.89032 | 9.75272 | 13867 ft | 329 kts | 213° |
| 2026-05-08 00:31 | 56.87135 | 9.73038 | 14924 ft | 327 kts | 213° |
| 2026-05-08 00:31 | 56.85223 | 9.70787 | 15846 ft | 329 kts | 213° |
| 2026-05-08 00:31 | 56.83286 | 9.68510 | 16674 ft | 334 kts | 213° |
| 2026-05-08 00:31 | 56.81322 | 9.66205 | 17429 ft | 340 kts | 213° |
| 2026-05-08 00:32 | 56.79299 | 9.63833 | 18186 ft | 346 kts | 213° |
| 2026-05-08 00:32 | 56.77267 | 9.61454 | 18941 ft | 351 kts | 213° |
| 2026-05-08 00:32 | 56.75214 | 9.59054 | 19725 ft | 355 kts | 213° |
| 2026-05-08 00:32 | 56.73139 | 9.56632 | 20502 ft | 358 kts | 212° |
| 2026-05-08 00:33 | 56.71063 | 9.54212 | 21229 ft | 362 kts | 212° |
| 2026-05-08 00:33 | 56.68912 | 9.51707 | 21964 ft | 366 kts | 212° |
| 2026-05-08 00:33 | 56.66766 | 9.49211 | 22665 ft | 370 kts | 212° |
| 2026-05-08 00:33 | 56.64609 | 9.46707 | 23344 ft | 374 kts | 212° |
| 2026-05-08 00:34 | 56.62423 | 9.44172 | 24011 ft | 378 kts | 212° |
| 2026-05-08 00:34 | 56.60198 | 9.41595 | 24680 ft | 382 kts | 212° |
| 2026-05-08 00:34 | 56.57963 | 9.39011 | 25330 ft | 385 kts | 212° |
| 2026-05-08 00:34 | 56.55694 | 9.36392 | 25982 ft | 389 kts | 212° |
| 2026-05-08 00:35 | 56.53428 | 9.33779 | 26624 ft | 392 kts | 211° |
| 2026-05-08 00:35 | 56.51117 | 9.31119 | 27238 ft | 396 kts | 211° |
| 2026-05-08 00:35 | 56.48791 | 9.28444 | 27842 ft | 399 kts | 211° |
| 2026-05-08 00:35 | 56.46459 | 9.25767 | 28432 ft | 403 kts | 211° |
| 2026-05-08 00:36 | 56.44075 | 9.23034 | 28997 ft | 406 kts | 211° |
| 2026-05-08 00:36 | 56.41696 | 9.20312 | 29540 ft | 410 kts | 211° |
| 2026-05-08 00:36 | 56.39289 | 9.17561 | 30096 ft | 413 kts | 211° |
| 2026-05-08 00:36 | 56.36830 | 9.14755 | 30642 ft | 417 kts | 211° |
| 2026-05-08 00:37 | 56.34364 | 9.11946 | 31165 ft | 420 kts | 211° |
| 2026-05-08 00:37 | 56.31907 | 9.09150 | 31647 ft | 424 kts | 210° |
| 2026-05-08 00:37 | 56.29406 | 9.06310 | 32120 ft | 428 kts | 210° |
| 2026-05-08 00:38 | 56.24361 | 9.00594 | 33276 ft | 429 kts | 210° |
| 2026-05-08 00:38 | 56.21832 | 8.97735 | 33937 ft | 427 kts | 210° |
| 2026-05-08 00:38 | 56.19327 | 8.94907 | 34570 ft | 426 kts | 210° |
| 2026-05-08 00:38 | 56.16842 | 8.92107 | 35108 ft | 425 kts | 210° |
| 2026-05-08 00:39 | 56.14367 | 8.89322 | 35570 ft | 423 kts | 210° |
| 2026-05-08 00:39 | 56.11874 | 8.86521 | 36004 ft | 421 kts | 210° |
| 2026-05-08 00:39 | 56.09398 | 8.83745 | 36127 ft | 423 kts | 210° |
| 2026-05-08 00:39 | 56.06878 | 8.80926 | 36157 ft | 434 kts | 210° |
| 2026-05-08 00:40 | 56.04269 | 8.78037 | 36167 ft | 444 kts | 210° |
| 2026-05-08 00:40 | 55.98991 | 8.72203 | 36165 ft | 448 kts | 210° |
| 2026-05-08 00:41 | 55.93739 | 8.66416 | 36165 ft | 446 kts | 210° |
| 2026-05-08 00:41 | 55.88475 | 8.60635 | 36168 ft | 447 kts | 210° |
| 2026-05-08 00:42 | 55.83153 | 8.54809 | 36166 ft | 446 kts | 210° |
| 2026-05-08 00:42 | 55.77842 | 8.49015 | 36161 ft | 447 kts | 210° |
| 2026-05-08 00:43 | 55.72541 | 8.43249 | 36160 ft | 448 kts | 210° |
| 2026-05-08 00:43 | 55.67260 | 8.37523 | 36156 ft | 448 kts | 210° |
| 2026-05-08 00:44 | 55.61938 | 8.31778 | 36158 ft | 448 kts | 208° |
| 2026-05-08 00:44 | 55.56258 | 8.27657 | 36165 ft | 445 kts | 196° |
| 2026-05-08 00:45 | 55.50418 | 8.24246 | 36163 ft | 444 kts | 196° |
| 2026-05-08 00:45 | 55.44555 | 8.20841 | 36152 ft | 445 kts | 196° |
| 2026-05-08 00:46 | 55.38686 | 8.17443 | 36155 ft | 445 kts | 196° |
| 2026-05-08 00:46 | 55.32837 | 8.14069 | 36146 ft | 445 kts | 196° |
| 2026-05-08 00:47 | 55.26973 | 8.10696 | 36153 ft | 445 kts | 196° |
| 2026-05-08 00:47 | 55.21111 | 8.07335 | 36145 ft | 446 kts | 196° |
| 2026-05-08 00:48 | 55.19895 | 8.06639 | 36146 ft | 446 kts | 196° |
| 2026-05-08 00:48 | 55.18490 | 8.05835 | 36144 ft | 446 kts | 196° |
| 2026-05-08 00:49 | 55.16833 | 8.04888 | 36145 ft | 447 kts | 196° |
| 2026-05-08 00:50 | 55.10940 | 8.01527 | 36148 ft | 447 kts | 196° |
| 2026-05-08 00:50 | 55.05063 | 7.98186 | 36152 ft | 447 kts | 196° |
| 2026-05-08 00:51 | 54.99166 | 7.95045 | 36149 ft | 445 kts | 189° |
| 2026-05-08 00:51 | 54.93119 | 7.93008 | 36141 ft | 444 kts | 189° |
| 2026-05-08 00:52 | 54.87075 | 7.90990 | 36140 ft | 444 kts | 189° |
| 2026-05-08 00:52 | 54.80987 | 7.88963 | 36151 ft | 444 kts | 189° |
| 2026-05-08 00:53 | 54.74880 | 7.86936 | 36139 ft | 444 kts | 189° |
| 2026-05-08 00:53 | 54.68815 | 7.84929 | 36148 ft | 445 kts | 189° |
| 2026-05-08 00:54 | 54.62759 | 7.82927 | 36146 ft | 445 kts | 189° |
| 2026-05-08 00:54 | 54.56713 | 7.80933 | 36144 ft | 444 kts | 189° |
| 2026-05-08 00:55 | 54.50670 | 7.78947 | 36144 ft | 444 kts | 189° |
| 2026-05-08 00:55 | 54.44589 | 7.76955 | 36138 ft | 444 kts | 189° |
| 2026-05-08 00:56 | 54.38541 | 7.74979 | 36142 ft | 444 kts | 190° |
| 2026-05-08 00:56 | 54.32509 | 7.73014 | 36146 ft | 443 kts | 190° |
| 2026-05-08 00:57 | 54.26454 | 7.71048 | 36134 ft | 444 kts | 190° |
| 2026-05-08 00:57 | 54.20382 | 7.69082 | 36141 ft | 444 kts | 190° |
| 2026-05-08 00:58 | 54.14344 | 7.67133 | 36265 ft | 447 kts | 190° |
| 2026-05-08 00:58 | 54.11298 | 7.66151 | 36164 ft | 441 kts | 190° |
| 2026-05-08 00:58 | 54.08290 | 7.65184 | 36138 ft | 441 kts | 190° |
| 2026-05-08 00:59 | 54.02271 | 7.63252 | 36140 ft | 443 kts | 190° |
| 2026-05-08 00:59 | 53.96209 | 7.61312 | 36137 ft | 443 kts | 190° |
| 2026-05-08 01:00 | 53.90274 | 7.58744 | 36132 ft | 443 kts | 200° |
| 2026-05-08 01:00 | 53.84544 | 7.55046 | 36139 ft | 442 kts | 200° |
| 2026-05-08 01:01 | 53.78951 | 7.50789 | 36129 ft | 442 kts | 212° |
| 2026-05-08 01:01 | 53.76442 | 7.47900 | 36130 ft | 427 kts | 214° |
| 2026-05-08 01:01 | 53.74021 | 7.45105 | 36128 ft | 423 kts | 214° |
| 2026-05-08 01:02 | 53.68340 | 7.38601 | 35954 ft | 428 kts | 213° |
| 2026-05-08 01:02 | 53.66689 | 7.36716 | 35649 ft | 429 kts | 213° |
| 2026-05-08 01:02 | 53.64259 | 7.33945 | 35193 ft | 427 kts | 212° |
| 2026-05-08 01:02 | 53.61835 | 7.31187 | 34712 ft | 423 kts | 212° |
| 2026-05-08 01:03 | 53.59398 | 7.28417 | 34217 ft | 420 kts | 212° |
| 2026-05-08 01:03 | 53.56990 | 7.25684 | 33756 ft | 423 kts | 212° |
| 2026-05-08 01:03 | 53.54546 | 7.22915 | 33283 ft | 424 kts | 212° |
| 2026-05-08 01:03 | 53.52118 | 7.20167 | 32818 ft | 425 kts | 212° |
| 2026-05-08 01:04 | 53.49670 | 7.17399 | 32345 ft | 425 kts | 213° |
| 2026-05-08 01:04 | 53.47223 | 7.14638 | 31875 ft | 426 kts | 213° |
| 2026-05-08 01:04 | 53.44767 | 7.11871 | 31405 ft | 427 kts | 213° |
| 2026-05-08 01:04 | 53.42290 | 7.09083 | 30919 ft | 425 kts | 213° |
| 2026-05-08 01:05 | 53.39850 | 7.06340 | 30441 ft | 423 kts | 212° |
| 2026-05-08 01:05 | 53.37452 | 7.03650 | 29983 ft | 418 kts | 213° |
| 2026-05-08 01:05 | 53.35043 | 7.00950 | 29516 ft | 414 kts | 213° |
| 2026-05-08 01:05 | 53.32686 | 6.98231 | 29044 ft | 411 kts | 218° |
| 2026-05-08 01:06 | 53.30488 | 6.95216 | 28604 ft | 409 kts | 219° |
| 2026-05-08 01:06 | 53.28275 | 6.92218 | 28145 ft | 407 kts | 218° |
| 2026-05-08 01:06 | 53.26094 | 6.89295 | 27706 ft | 405 kts | 218° |
| 2026-05-08 01:06 | 53.23891 | 6.86354 | 27251 ft | 403 kts | 218° |
| 2026-05-08 01:07 | 53.21710 | 6.83448 | 26811 ft | 400 kts | 218° |
| 2026-05-08 01:07 | 53.19544 | 6.80567 | 26363 ft | 398 kts | 218° |
| 2026-05-08 01:07 | 53.17376 | 6.77688 | 25927 ft | 396 kts | 218° |
| 2026-05-08 01:07 | 53.15251 | 6.74870 | 25486 ft | 393 kts | 218° |
| 2026-05-08 01:08 | 53.13129 | 6.72058 | 25062 ft | 391 kts | 218° |
| 2026-05-08 01:08 | 53.11016 | 6.69264 | 24636 ft | 388 kts | 218° |
| 2026-05-08 01:08 | 53.08898 | 6.66465 | 24207 ft | 386 kts | 218° |
| 2026-05-08 01:08 | 53.06790 | 6.63684 | 23779 ft | 384 kts | 218° |
| 2026-05-08 01:09 | 53.04718 | 6.60954 | 23356 ft | 382 kts | 219° |
| 2026-05-08 01:09 | 53.02637 | 6.58215 | 22934 ft | 380 kts | 219° |
| 2026-05-08 01:09 | 53.00582 | 6.55514 | 22514 ft | 378 kts | 219° |
| 2026-05-08 01:09 | 52.98515 | 6.52801 | 22094 ft | 375 kts | 219° |
| 2026-05-08 01:10 | 52.96481 | 6.50134 | 21677 ft | 373 kts | 219° |
| 2026-05-08 01:10 | 52.94452 | 6.47477 | 21271 ft | 371 kts | 219° |
| 2026-05-08 01:10 | 52.92457 | 6.44867 | 20867 ft | 369 kts | 219° |
| 2026-05-08 01:10 | 52.90449 | 6.42245 | 20457 ft | 367 kts | 219° |
| 2026-05-08 01:11 | 52.88450 | 6.39636 | 20051 ft | 365 kts | 219° |
| 2026-05-08 01:11 | 52.86467 | 6.37051 | 19758 ft | 360 kts | 219° |
| 2026-05-08 01:11 | 52.84498 | 6.34487 | 19779 ft | 361 kts | 219° |
| 2026-05-08 01:11 | 52.82813 | 6.31432 | 19754 ft | 362 kts | 234° |
| 2026-05-08 01:12 | 52.81397 | 6.28055 | 19769 ft | 363 kts | 235° |
| 2026-05-08 01:12 | 52.79993 | 6.24709 | 19636 ft | 366 kts | 235° |
| 2026-05-08 01:12 | 52.78584 | 6.21360 | 19196 ft | 364 kts | 235° |
| 2026-05-08 01:12 | 52.77116 | 6.17874 | 18712 ft | 360 kts | 235° |
| 2026-05-08 01:13 | 52.75699 | 6.14511 | 18238 ft | 357 kts | 235° |
| 2026-05-08 01:13 | 52.74299 | 6.11197 | 17774 ft | 354 kts | 234° |
| 2026-05-08 01:13 | 52.72895 | 6.07876 | 17296 ft | 352 kts | 234° |
| 2026-05-08 01:13 | 52.71508 | 6.04603 | 16846 ft | 350 kts | 234° |
| 2026-05-08 01:14 | 52.70125 | 6.01340 | 16384 ft | 347 kts | 235° |
| 2026-05-08 01:14 | 52.68740 | 5.98080 | 15925 ft | 345 kts | 235° |
| 2026-05-08 01:14 | 52.67372 | 5.94861 | 15470 ft | 343 kts | 235° |
| 2026-05-08 01:14 | 52.66013 | 5.91667 | 15018 ft | 341 kts | 235° |
| 2026-05-08 01:15 | 52.64661 | 5.88496 | 14568 ft | 339 kts | 235° |
| 2026-05-08 01:15 | 52.63316 | 5.85341 | 14124 ft | 337 kts | 235° |
| 2026-05-08 01:15 | 52.61980 | 5.82215 | 13675 ft | 336 kts | 235° |
| 2026-05-08 01:15 | 52.60648 | 5.79100 | 13234 ft | 328 kts | 234° |
| 2026-05-08 01:16 | 52.59341 | 5.76046 | 12789 ft | 317 kts | 234° |
| 2026-05-08 01:16 | 52.58098 | 5.73147 | 12380 ft | 308 kts | 234° |
| 2026-05-08 01:16 | 52.56874 | 5.70294 | 11976 ft | 300 kts | 234° |
| 2026-05-08 01:16 | 52.55682 | 5.67519 | 11581 ft | 293 kts | 234° |
| 2026-05-08 01:17 | 52.54519 | 5.64815 | 11204 ft | 289 kts | 234° |
| 2026-05-08 01:17 | 52.53357 | 5.62116 | 10824 ft | 289 kts | 234° |
| 2026-05-08 01:17 | 52.52196 | 5.59423 | 10437 ft | 289 kts | 234° |
| 2026-05-08 01:17 | 52.51103 | 5.56688 | 10035 ft | 289 kts | 246° |
| 2026-05-08 01:18 | 52.50406 | 5.53596 | 10026 ft | 285 kts | 250° |
| 2026-05-08 01:18 | 52.49750 | 5.50551 | 10032 ft | 287 kts | 250° |
| 2026-05-08 01:18 | 52.49077 | 5.47425 | 10035 ft | 288 kts | 250° |
| 2026-05-08 01:18 | 52.48410 | 5.44333 | 10034 ft | 288 kts | 250° |
| 2026-05-08 01:19 | 52.47750 | 5.41272 | 10036 ft | 288 kts | 250° |
| 2026-05-08 01:19 | 52.47082 | 5.38184 | 10037 ft | 288 kts | 250° |
| 2026-05-08 01:19 | 52.46410 | 5.35079 | 10037 ft | 288 kts | 250° |
| 2026-05-08 01:19 | 52.45748 | 5.32023 | 10031 ft | 288 kts | 249° |
| 2026-05-08 01:20 | 52.45082 | 5.28955 | 10021 ft | 288 kts | 249° |
| 2026-05-08 01:20 | 52.44404 | 5.25836 | 10017 ft | 289 kts | 249° |
| 2026-05-08 01:20 | 52.43734 | 5.22759 | 10008 ft | 289 kts | 249° |
| 2026-05-08 01:20 | 52.43054 | 5.19639 | 10011 ft | 288 kts | 249° |
| 2026-05-08 01:21 | 52.42383 | 5.16568 | 10015 ft | 287 kts | 249° |
| 2026-05-08 01:21 | 52.41715 | 5.13511 | 10004 ft | 287 kts | 249° |
| 2026-05-08 01:21 | 52.41032 | 5.10394 | 10007 ft | 287 kts | 249° |
| 2026-05-08 01:21 | 52.40365 | 5.07352 | 10019 ft | 287 kts | 249° |
| 2026-05-08 01:22 | 52.39683 | 5.04248 | 10006 ft | 287 kts | 249° |
| 2026-05-08 01:22 | 52.39007 | 5.01177 | 10003 ft | 287 kts | 249° |
| 2026-05-08 01:22 | 52.38333 | 4.98118 | 9972 ft | 282 kts | 249° |
| 2026-05-08 01:22 | 52.37693 | 4.95213 | 9929 ft | 263 kts | 249° |
| 2026-05-08 01:23 | 52.37088 | 4.92471 | 9896 ft | 250 kts | 249° |
| 2026-05-08 01:23 | 52.36503 | 4.89826 | 9887 ft | 251 kts | 249° |
| 2026-05-08 01:23 | 52.35900 | 4.87103 | 9890 ft | 253 kts | 249° |
| 2026-05-08 01:23 | 52.35303 | 4.84410 | 9894 ft | 253 kts | 249° |
| 2026-05-08 01:24 | 52.34694 | 4.81669 | 9814 ft | 255 kts | 249° |
| 2026-05-08 01:24 | 52.34092 | 4.78961 | 9540 ft | 255 kts | 249° |
| 2026-05-08 01:24 | 52.33492 | 4.76235 | 9215 ft | 253 kts | 253° |
| 2026-05-08 01:24 | 52.33461 | 4.73383 | 8896 ft | 251 kts | 281° |
| 2026-05-08 01:25 | 52.33964 | 4.69682 | 8450 ft | 251 kts | 282° |
| 2026-05-08 01:25 | 52.34225 | 4.67805 | 8222 ft | 251 kts | 282° |
| 2026-05-08 01:25 | 52.34569 | 4.65059 | 7891 ft | 249 kts | 271° |
| 2026-05-08 01:25 | 52.34153 | 4.62391 | 7594 ft | 245 kts | 240° |
| 2026-05-08 01:26 | 52.33277 | 4.59992 | 7239 ft | 246 kts | 237° |
| 2026-05-08 01:26 | 52.32385 | 4.57627 | 6895 ft | 244 kts | 237° |
| 2026-05-08 01:26 | 52.31490 | 4.55283 | 6562 ft | 241 kts | 237° |
| 2026-05-08 01:26 | 52.30597 | 4.52959 | 6246 ft | 240 kts | 237° |
| 2026-05-08 01:27 | 52.29713 | 4.50667 | 5923 ft | 239 kts | 237° |
| 2026-05-08 01:27 | 52.28829 | 4.48382 | 5605 ft | 238 kts | 237° |
| 2026-05-08 01:27 | 52.27954 | 4.46122 | 5294 ft | 237 kts | 237° |
| 2026-05-08 01:27 | 52.26905 | 4.44079 | 4981 ft | 234 kts | 209° |
| 2026-05-08 01:28 | 52.25363 | 4.43515 | 4690 ft | 233 kts | 172° |
| 2026-05-08 01:28 | 52.23867 | 4.44490 | 4110 ft | 238 kts | 149° |
| 2026-05-08 01:28 | 52.22465 | 4.45857 | 3930 ft | 227 kts | 142° |
| 2026-05-08 01:28 | 52.21582 | 4.47896 | 3943 ft | 221 kts | 111° |
| 2026-05-08 01:29 | 52.21063 | 4.50270 | 3923 ft | 224 kts | 109° |
| 2026-05-08 01:29 | 52.20763 | 4.52753 | 3917 ft | 225 kts | 82° |
| 2026-05-08 01:29 | 52.21437 | 4.55038 | 3955 ft | 228 kts | 54° |
| 2026-05-08 01:29 | 52.22367 | 4.57111 | 3831 ft | 225 kts | 56° |
| 2026-05-08 01:30 | 52.23234 | 4.59177 | 3371 ft | 212 kts | 58° |
| 2026-05-08 01:30 | 52.23997 | 4.61063 | 2858 ft | 192 kts | 58° |
| 2026-05-08 01:30 | 52.24693 | 4.62821 | 2340 ft | 180 kts | 59° |
| 2026-05-08 01:30 | 52.25346 | 4.64487 | 1943 ft | 171 kts | 59° |
| 2026-05-08 01:31 | 52.25992 | 4.66085 | 1463 ft | 167 kts | 58° |
| 2026-05-08 01:31 | 52.26442 | 4.67772 | 998 ft | 160 kts | 91° |
| 2026-05-08 01:31 | 52.26028 | 4.69315 | 929 ft | 152 kts | 138° |
| 2026-05-08 01:31 | 52.25061 | 4.69837 | 993 ft | 149 kts | 182° |
| 2026-05-08 01:32 | 52.24135 | 4.69093 | 928 ft | 155 kts | 227° |
| 2026-05-08 01:32 | 52.23785 | 4.67564 | 876 ft | 136 kts | 275° |
| 2026-05-08 01:32 | 52.24156 | 4.66236 | 909 ft | 128 kts | 322° |
| 2026-05-08 01:32 | 52.24955 | 4.65732 | 929 ft | 125 kts | 7° |
| 2026-05-08 01:33 | 52.25802 | 4.65990 | 928 ft | 123 kts | 29° |
| 2026-05-08 01:33 | 52.26335 | 4.66996 | 758 ft | 117 kts | 66° |
| 2026-05-08 01:33 | 52.26760 | 4.68098 | 801 ft | 113 kts | 62° |
| 2026-05-08 01:33 | 52.27190 | 4.69232 | 809 ft | 118 kts | 63° |
| 2026-05-08 01:34 | 52.27604 | 4.70371 | 484 ft | 118 kts | 59° |
| 2026-05-08 01:34 | 52.28062 | 4.71497 | 379 ft | 122 kts | 63° |
| 2026-05-08 01:34 | 52.28516 | 4.72670 | 191 ft | 118 kts | 59° |
| 2026-05-08 01:34 | 52.28951 | 4.73814 | 37 ft | 119 kts | 60° |
| 2026-05-08 01:35 | 52.29355 | 4.74876 | -1 ft | 92 kts | 57° |
| 2026-05-08 01:35 | 52.29610 | 4.75542 | -3 ft | 39 kts | 59° |
| 2026-05-08 01:35 | 52.29749 | 4.75770 | -3 ft | 24 kts | 32° |
| 2026-05-08 01:35 | 52.29847 | 4.75858 | -3 ft | 13 kts | 28° |
| 2026-05-08 01:36 | 52.29919 | 4.75918 | -2 ft | 11 kts | 15° |
| 2026-05-08 01:36 | 52.29931 | 4.75829 | -2 ft | 12 kts | 236° |
| 2026-05-08 01:36 | 52.29872 | 4.75666 | -2 ft | 22 kts | 232° |
| 2026-05-08 01:36 | 52.29782 | 4.75425 | -1 ft | 19 kts | 251° |
| 2026-05-08 01:37 | 52.29807 | 4.75312 | -1 ft | 9 kts | 18° |
| 2026-05-08 01:37 | 52.29864 | 4.75401 | -1 ft | 6 kts | 54° |
| 2026-05-08 01:37 | 52.29910 | 4.75419 | -1 ft | 10 kts | 332° |
| 2026-05-08 01:37 | 52.29960 | 4.75348 | 0 ft | 6 kts | 267° |
| 2026-05-08 01:38 | 52.29946 | 4.75297 | 0 ft | 0 kts | 241° |